THY9GC LTFM-EGCC
Flight info
| Callsign | THY9GC |
|---|---|
| Flight time | N/A |
| Altitude | 36000 |
| Route | TUDBU1D/35L TUDBU DCT ETUBA DCT NAVOD DCT INVED DCT DITIS DCT OKG DCT VELIS DCT SWALM DCT TORNU DCT BATAK DCT GALSO Q63 ERING L179 LAM UN57 WELIN T420 ELVOS |
| Aircraft | A21N/M-SDE2E3FGHIRWXY/LB1 |
Departure
| Time | 2026-05-06 15:35 |
|---|---|
| Airport | İstanbul Airport (LTFM) |
Arrival
| Time | N/A |
|---|---|
| Airport | Manchester Airport (EGCC) |
| Time | Latitude | Longitude | Altitude | Speed | Heading |
|---|---|---|---|---|---|
| 2026-05-06 15:03 | 41.26016 | 28.73550 | 334 ft | 0 kts | 107° |
| 2026-05-06 15:25 | 41.26021 | 28.73528 | 332 ft | 3 kts | 107° |
| 2026-05-06 15:25 | 41.26027 | 28.73503 | 334 ft | 3 kts | 103° |
| 2026-05-06 15:26 | 41.26030 | 28.73478 | 334 ft | 3 kts | 72° |
| 2026-05-06 15:26 | 41.26021 | 28.73461 | 333 ft | 3 kts | 20° |
| 2026-05-06 15:26 | 41.26005 | 28.73454 | 335 ft | 3 kts | 19° |
| 2026-05-06 15:26 | 41.25986 | 28.73445 | 333 ft | 2 kts | 17° |
| 2026-05-06 15:27 | 41.25985 | 28.73445 | 333 ft | 0 kts | 17° |
| 2026-05-06 15:31 | 41.25997 | 28.73450 | 335 ft | 5 kts | 18° |
| 2026-05-06 15:31 | 41.26034 | 28.73466 | 333 ft | 0 kts | 18° |
| 2026-05-06 15:31 | 41.26056 | 28.73475 | 332 ft | 5 kts | 17° |
| 2026-05-06 15:32 | 41.26176 | 28.73517 | 336 ft | 9 kts | 357° |
| 2026-05-06 15:32 | 41.26219 | 28.73466 | 333 ft | 9 kts | 285° |
| 2026-05-06 15:32 | 41.26221 | 28.73365 | 334 ft | 12 kts | 268° |
| 2026-05-06 15:32 | 41.26219 | 28.73248 | 334 ft | 13 kts | 270° |
| 2026-05-06 15:33 | 41.26219 | 28.73132 | 334 ft | 13 kts | 270° |
| 2026-05-06 15:33 | 41.26216 | 28.73016 | 334 ft | 12 kts | 269° |
| 2026-05-06 15:33 | 41.26214 | 28.72879 | 336 ft | 23 kts | 269° |
| 2026-05-06 15:33 | 41.26212 | 28.72668 | 337 ft | 19 kts | 269° |
| 2026-05-06 15:34 | 41.26233 | 28.72529 | 336 ft | 9 kts | 324° |
| 2026-05-06 15:34 | 41.26253 | 28.72525 | 335 ft | 0 kts | 4° |
| 2026-05-06 15:34 | 41.26257 | 28.72526 | 335 ft | 7 kts | 4° |
| 2026-05-06 15:34 | 41.26523 | 28.72527 | 335 ft | 68 kts | 358° |
| 2026-05-06 15:35 | 41.27209 | 28.72510 | 334 ft | 130 kts | 358° |
| 2026-05-06 15:35 | 41.28286 | 28.72488 | 428 ft | 168 kts | 1° |
| 2026-05-06 15:35 | 41.29496 | 28.72463 | 830 ft | 183 kts | 6° |
| 2026-05-06 15:35 | 41.30874 | 28.72792 | 960 ft | 217 kts | 8° |
| 2026-05-06 15:36 | 41.32450 | 28.72757 | 1502 ft | 233 kts | 359° |
| 2026-05-06 15:36 | 41.34096 | 28.72677 | 2154 ft | 242 kts | 358° |
| 2026-05-06 15:36 | 41.35813 | 28.72616 | 2788 ft | 251 kts | 358° |
| 2026-05-06 15:36 | 41.37565 | 28.72565 | 3585 ft | 252 kts | 354° |
| 2026-05-06 15:37 | 41.39247 | 28.71955 | 4404 ft | 251 kts | 336° |
| 2026-05-06 15:37 | 41.40824 | 28.70981 | 5358 ft | 249 kts | 333° |
| 2026-05-06 15:37 | 41.42377 | 28.69960 | 6293 ft | 249 kts | 333° |
| 2026-05-06 15:37 | 41.43909 | 28.68933 | 7106 ft | 251 kts | 330° |
| 2026-05-06 15:38 | 41.45321 | 28.67539 | 7884 ft | 256 kts | 317° |
| 2026-05-06 15:38 | 41.46546 | 28.65761 | 8546 ft | 264 kts | 311° |
| 2026-05-06 15:38 | 41.47712 | 28.63837 | 9303 ft | 268 kts | 310° |
| 2026-05-06 15:38 | 41.48864 | 28.61867 | 10094 ft | 271 kts | 310° |
| 2026-05-06 15:39 | 41.50045 | 28.59828 | 10529 ft | 287 kts | 310° |
| 2026-05-06 15:39 | 41.51302 | 28.57652 | 10819 ft | 306 kts | 310° |
| 2026-05-06 15:39 | 41.52630 | 28.55348 | 11110 ft | 324 kts | 309° |
| 2026-05-06 15:39 | 41.54015 | 28.52938 | 11600 ft | 334 kts | 309° |
| 2026-05-06 15:40 | 41.54979 | 28.51257 | 12025 ft | 338 kts | 309° |
| 2026-05-06 15:40 | 41.56416 | 28.48748 | 12700 ft | 343 kts | 310° |
| 2026-05-06 15:40 | 41.57851 | 28.46242 | 13367 ft | 347 kts | 310° |
| 2026-05-06 15:40 | 41.59351 | 28.43622 | 14045 ft | 351 kts | 310° |
| 2026-05-06 15:41 | 41.60843 | 28.41014 | 14671 ft | 355 kts | 310° |
| 2026-05-06 15:41 | 41.62345 | 28.38385 | 15303 ft | 357 kts | 310° |
| 2026-05-06 15:41 | 41.63860 | 28.35732 | 15934 ft | 360 kts | 310° |
| 2026-05-06 15:41 | 41.65388 | 28.33055 | 16560 ft | 364 kts | 310° |
| 2026-05-06 15:42 | 41.66926 | 28.30358 | 17149 ft | 367 kts | 310° |
| 2026-05-06 15:42 | 41.68482 | 28.27625 | 17746 ft | 370 kts | 310° |
| 2026-05-06 15:42 | 41.70048 | 28.24874 | 18358 ft | 373 kts | 310° |
| 2026-05-06 15:42 | 41.71621 | 28.22108 | 18853 ft | 376 kts | 310° |
| 2026-05-06 15:43 | 41.73206 | 28.19317 | 19375 ft | 377 kts | 310° |
| 2026-05-06 15:43 | 41.74799 | 28.16509 | 19897 ft | 379 kts | 310° |
| 2026-05-06 15:43 | 41.76322 | 28.13824 | 20389 ft | 381 kts | 310° |
| 2026-05-06 15:43 | 41.77996 | 28.10869 | 20914 ft | 383 kts | 310° |
| 2026-05-06 15:44 | 41.79608 | 28.08020 | 21420 ft | 385 kts | 310° |
| 2026-05-06 15:44 | 41.81228 | 28.05155 | 21916 ft | 387 kts | 310° |
| 2026-05-06 15:44 | 41.82858 | 28.02271 | 22384 ft | 390 kts | 310° |
| 2026-05-06 15:44 | 41.84495 | 27.99369 | 22868 ft | 392 kts | 310° |
| 2026-05-06 15:45 | 41.86136 | 27.96460 | 23350 ft | 394 kts | 310° |
| 2026-05-06 15:45 | 41.87770 | 27.93560 | 23775 ft | 396 kts | 310° |
| 2026-05-06 15:45 | 41.89431 | 27.90608 | 24151 ft | 398 kts | 310° |
| 2026-05-06 15:45 | 41.91102 | 27.87637 | 24522 ft | 400 kts | 310° |
| 2026-05-06 15:46 | 41.92782 | 27.84645 | 24899 ft | 402 kts | 310° |
| 2026-05-06 15:46 | 41.94469 | 27.81638 | 25257 ft | 403 kts | 310° |
| 2026-05-06 15:46 | 41.96174 | 27.78650 | 25613 ft | 403 kts | 312° |
| 2026-05-06 15:46 | 41.98031 | 27.75815 | 25943 ft | 404 kts | 315° |
| 2026-05-06 15:47 | 41.99970 | 27.73061 | 26267 ft | 405 kts | 316° |
| 2026-05-06 15:47 | 42.01949 | 27.70351 | 26608 ft | 407 kts | 317° |
| 2026-05-06 15:47 | 42.03955 | 27.67643 | 26938 ft | 409 kts | 317° |
| 2026-05-06 15:47 | 42.05966 | 27.64932 | 27219 ft | 410 kts | 317° |
| 2026-05-06 15:48 | 42.07985 | 27.62200 | 27530 ft | 412 kts | 317° |
| 2026-05-06 15:48 | 42.10006 | 27.59449 | 27775 ft | 415 kts | 317° |
| 2026-05-06 15:48 | 42.12040 | 27.56666 | 28027 ft | 417 kts | 316° |
| 2026-05-06 15:48 | 42.14075 | 27.53872 | 28346 ft | 418 kts | 316° |
| 2026-05-06 15:49 | 42.16102 | 27.51081 | 28813 ft | 415 kts | 317° |
| 2026-05-06 15:49 | 42.18115 | 27.48303 | 29244 ft | 413 kts | 316° |
| 2026-05-06 15:49 | 42.20119 | 27.45536 | 29633 ft | 412 kts | 316° |
| 2026-05-06 15:49 | 42.22119 | 27.42774 | 30001 ft | 411 kts | 316° |
| 2026-05-06 15:50 | 42.24102 | 27.40032 | 30322 ft | 410 kts | 316° |
| 2026-05-06 15:50 | 42.26097 | 27.37272 | 30508 ft | 411 kts | 316° |
| 2026-05-06 15:50 | 42.28099 | 27.34502 | 30743 ft | 412 kts | 316° |
| 2026-05-06 15:50 | 42.30101 | 27.31727 | 31051 ft | 411 kts | 316° |
| 2026-05-06 15:51 | 42.32092 | 27.28965 | 31332 ft | 410 kts | 316° |
| 2026-05-06 15:51 | 42.34071 | 27.26217 | 31605 ft | 409 kts | 316° |
| 2026-05-06 15:51 | 42.36031 | 27.23491 | 31874 ft | 407 kts | 316° |
| 2026-05-06 15:51 | 42.38011 | 27.20737 | 32132 ft | 407 kts | 316° |
| 2026-05-06 15:52 | 42.39986 | 27.17986 | 32384 ft | 406 kts | 316° |
| 2026-05-06 15:52 | 42.41945 | 27.15255 | 32658 ft | 403 kts | 316° |
| 2026-05-06 15:52 | 42.43887 | 27.12544 | 33023 ft | 399 kts | 316° |
| 2026-05-06 15:52 | 42.45820 | 27.09845 | 33203 ft | 400 kts | 316° |
| 2026-05-06 15:53 | 42.47763 | 27.07130 | 33310 ft | 402 kts | 316° |
| 2026-05-06 15:53 | 42.49708 | 27.04410 | 33512 ft | 401 kts | 316° |
| 2026-05-06 15:53 | 42.51648 | 27.01693 | 33721 ft | 400 kts | 316° |
| 2026-05-06 15:53 | 42.53559 | 26.99013 | 33929 ft | 400 kts | 316° |
| 2026-05-06 15:54 | 42.55489 | 26.96305 | 34111 ft | 399 kts | 316° |
| 2026-05-06 15:54 | 42.57441 | 26.93563 | 34277 ft | 398 kts | 316° |
| 2026-05-06 15:54 | 42.59324 | 26.90913 | 34574 ft | 393 kts | 316° |
| 2026-05-06 15:54 | 42.61220 | 26.88244 | 34729 ft | 393 kts | 316° |
| 2026-05-06 15:55 | 42.65027 | 26.82882 | 34848 ft | 396 kts | 316° |
| 2026-05-06 15:55 | 42.68849 | 26.77490 | 35008 ft | 398 kts | 316° |
| 2026-05-06 15:56 | 42.72676 | 26.72076 | 35156 ft | 400 kts | 316° |
| 2026-05-06 15:56 | 42.74610 | 26.69337 | 35316 ft | 399 kts | 316° |
| 2026-05-06 15:56 | 42.76517 | 26.66632 | 35403 ft | 399 kts | 316° |
| 2026-05-06 15:57 | 42.80363 | 26.61123 | 35561 ft | 402 kts | 313° |
| 2026-05-06 15:57 | 42.83691 | 26.54939 | 35705 ft | 405 kts | 307° |
| 2026-05-06 15:58 | 42.86799 | 26.48521 | 35809 ft | 407 kts | 306° |
| 2026-05-06 15:58 | 42.89878 | 26.42009 | 35803 ft | 411 kts | 305° |
| 2026-05-06 15:59 | 42.92961 | 26.35481 | 35969 ft | 411 kts | 306° |
| 2026-05-06 15:59 | 42.96060 | 26.28931 | 36021 ft | 412 kts | 306° |
| 2026-05-06 16:00 | 42.99177 | 26.22338 | 36016 ft | 411 kts | 306° |
| 2026-05-06 16:00 | 43.02280 | 26.15765 | 36011 ft | 411 kts | 305° |
| 2026-05-06 16:01 | 43.05380 | 26.09184 | 35993 ft | 412 kts | 305° |
| 2026-05-06 16:01 | 43.08481 | 26.02584 | 35985 ft | 412 kts | 305° |
| 2026-05-06 16:02 | 43.11577 | 25.95980 | 35973 ft | 412 kts | 305° |
| 2026-05-06 16:02 | 43.14648 | 25.89413 | 35968 ft | 412 kts | 304° |
| 2026-05-06 16:03 | 43.17734 | 25.82801 | 35964 ft | 412 kts | 304° |
| 2026-05-06 16:03 | 43.20818 | 25.76178 | 35964 ft | 412 kts | 304° |
| 2026-05-06 16:04 | 43.23893 | 25.69559 | 35968 ft | 412 kts | 304° |
| 2026-05-06 16:04 | 43.26970 | 25.62920 | 35969 ft | 412 kts | 304° |
| 2026-05-06 16:05 | 43.30040 | 25.56282 | 35968 ft | 412 kts | 304° |
| 2026-05-06 16:05 | 43.33106 | 25.49639 | 35973 ft | 412 kts | 304° |
| 2026-05-06 16:06 | 43.36166 | 25.42993 | 35968 ft | 412 kts | 304° |
| 2026-05-06 16:06 | 43.39226 | 25.36332 | 35957 ft | 412 kts | 304° |
| 2026-05-06 16:07 | 43.42278 | 25.29674 | 35969 ft | 412 kts | 304° |
| 2026-05-06 16:07 | 43.45332 | 25.22994 | 35969 ft | 412 kts | 304° |
| 2026-05-06 16:08 | 43.48360 | 25.16357 | 35967 ft | 412 kts | 304° |
| 2026-05-06 16:08 | 43.51405 | 25.09667 | 35967 ft | 412 kts | 304° |
| 2026-05-06 16:09 | 43.54446 | 25.02972 | 35968 ft | 412 kts | 303° |
| 2026-05-06 16:09 | 43.57491 | 24.96252 | 35959 ft | 413 kts | 303° |
| 2026-05-06 16:10 | 43.60524 | 24.89543 | 35959 ft | 413 kts | 303° |
| 2026-05-06 16:10 | 43.63560 | 24.82811 | 35958 ft | 412 kts | 303° |
| 2026-05-06 16:11 | 43.66594 | 24.76072 | 35959 ft | 413 kts | 303° |
| 2026-05-06 16:11 | 43.69618 | 24.69336 | 35955 ft | 413 kts | 303° |
| 2026-05-06 16:12 | 43.72642 | 24.62583 | 35957 ft | 413 kts | 303° |
| 2026-05-06 16:12 | 43.75754 | 24.55965 | 35951 ft | 412 kts | 309° |
| 2026-05-06 16:13 | 43.79381 | 24.49827 | 35957 ft | 412 kts | 310° |
| 2026-05-06 16:13 | 43.83106 | 24.43791 | 35954 ft | 412 kts | 311° |
| 2026-05-06 16:14 | 43.86823 | 24.37810 | 35954 ft | 412 kts | 311° |
| 2026-05-06 16:14 | 43.90574 | 24.31746 | 35950 ft | 412 kts | 311° |
| 2026-05-06 16:15 | 43.94270 | 24.25740 | 35946 ft | 412 kts | 310° |
| 2026-05-06 16:15 | 43.97994 | 24.19671 | 35952 ft | 413 kts | 310° |
| 2026-05-06 16:16 | 44.01715 | 24.13592 | 35945 ft | 413 kts | 310° |
| 2026-05-06 16:16 | 44.05432 | 24.07510 | 35948 ft | 413 kts | 310° |
| 2026-05-06 16:17 | 44.09146 | 24.01419 | 35952 ft | 413 kts | 310° |
| 2026-05-06 16:17 | 44.12853 | 23.95327 | 35947 ft | 412 kts | 310° |
| 2026-05-06 16:18 | 44.16558 | 23.89225 | 35947 ft | 412 kts | 310° |
| 2026-05-06 16:18 | 44.20258 | 23.83118 | 35947 ft | 412 kts | 310° |
| 2026-05-06 16:19 | 44.23932 | 23.77041 | 35946 ft | 412 kts | 310° |
| 2026-05-06 16:19 | 44.27623 | 23.70923 | 35942 ft | 412 kts | 309° |
| 2026-05-06 16:20 | 44.31312 | 23.64796 | 35960 ft | 412 kts | 309° |
| 2026-05-06 16:20 | 44.35000 | 23.58655 | 35956 ft | 412 kts | 309° |
| 2026-05-06 16:21 | 44.38689 | 23.52502 | 35953 ft | 412 kts | 309° |
| 2026-05-06 16:21 | 44.42367 | 23.46352 | 35946 ft | 412 kts | 309° |
| 2026-05-06 16:22 | 44.46044 | 23.40191 | 35943 ft | 413 kts | 309° |
| 2026-05-06 16:22 | 44.49724 | 23.34013 | 35945 ft | 413 kts | 309° |
| 2026-05-06 16:23 | 44.53401 | 23.27826 | 35941 ft | 413 kts | 309° |
| 2026-05-06 16:23 | 44.56459 | 23.22670 | 35947 ft | 412 kts | 309° |
| 2026-05-06 16:24 | 44.60709 | 23.15488 | 35946 ft | 412 kts | 308° |
| 2026-05-06 16:24 | 44.63773 | 23.10299 | 35940 ft | 412 kts | 308° |
| 2026-05-06 16:25 | 44.67423 | 23.04105 | 35945 ft | 412 kts | 308° |
| 2026-05-06 16:25 | 44.71051 | 22.97936 | 35946 ft | 412 kts | 308° |
| 2026-05-06 16:26 | 44.74701 | 22.91716 | 35946 ft | 412 kts | 308° |
| 2026-05-06 16:26 | 44.78346 | 22.85490 | 35949 ft | 412 kts | 308° |
| 2026-05-06 16:27 | 44.81982 | 22.79266 | 35949 ft | 412 kts | 308° |
| 2026-05-06 16:27 | 44.85620 | 22.73026 | 35954 ft | 412 kts | 308° |
| 2026-05-06 16:28 | 44.89252 | 22.66782 | 35953 ft | 411 kts | 308° |
| 2026-05-06 16:28 | 44.92878 | 22.60535 | 35956 ft | 411 kts | 308° |
| 2026-05-06 16:29 | 44.96484 | 22.54307 | 35965 ft | 411 kts | 308° |
| 2026-05-06 16:29 | 45.00098 | 22.48054 | 35964 ft | 410 kts | 308° |
| 2026-05-06 16:30 | 45.03094 | 22.42858 | 35968 ft | 410 kts | 308° |
| 2026-05-06 16:30 | 45.07288 | 22.35569 | 35976 ft | 410 kts | 307° |
| 2026-05-06 16:31 | 45.10892 | 22.29291 | 35966 ft | 410 kts | 307° |
| 2026-05-06 16:31 | 45.14487 | 22.23012 | 35967 ft | 411 kts | 307° |
| 2026-05-06 16:32 | 45.18083 | 22.16720 | 35957 ft | 411 kts | 307° |
| 2026-05-06 16:32 | 45.21674 | 22.10423 | 35959 ft | 410 kts | 307° |
| 2026-05-06 16:33 | 45.25255 | 22.04130 | 35948 ft | 410 kts | 307° |
| 2026-05-06 16:34 | 45.30590 | 21.94725 | 35942 ft | 410 kts | 307° |
| 2026-05-06 16:34 | 45.34159 | 21.88418 | 35944 ft | 410 kts | 307° |
| 2026-05-06 16:35 | 45.37727 | 21.82097 | 35938 ft | 409 kts | 307° |
| 2026-05-06 16:35 | 45.41293 | 21.75765 | 35937 ft | 411 kts | 306° |
| 2026-05-06 16:36 | 45.44868 | 21.69403 | 35929 ft | 412 kts | 306° |
| 2026-05-06 16:36 | 45.48445 | 21.63025 | 35931 ft | 412 kts | 306° |
| 2026-05-06 16:37 | 45.52016 | 21.56643 | 35940 ft | 412 kts | 306° |
| 2026-05-06 16:37 | 45.55576 | 21.50266 | 35929 ft | 410 kts | 306° |
| 2026-05-06 16:38 | 45.59124 | 21.43895 | 35931 ft | 410 kts | 306° |
| 2026-05-06 16:38 | 45.62676 | 21.37503 | 35930 ft | 410 kts | 306° |
| 2026-05-06 16:39 | 45.66218 | 21.31114 | 35920 ft | 410 kts | 306° |
| 2026-05-06 16:39 | 45.69756 | 21.24718 | 35920 ft | 410 kts | 306° |
| 2026-05-06 16:40 | 45.73293 | 21.18311 | 35916 ft | 410 kts | 305° |
| 2026-05-06 16:40 | 45.76829 | 21.11888 | 35916 ft | 411 kts | 305° |
| 2026-05-06 16:41 | 45.80342 | 21.05493 | 35911 ft | 411 kts | 305° |
| 2026-05-06 16:41 | 45.83868 | 20.99062 | 35914 ft | 411 kts | 305° |
| 2026-05-06 16:42 | 45.87394 | 20.92614 | 35912 ft | 410 kts | 305° |
| 2026-05-06 16:42 | 45.90909 | 20.86172 | 35912 ft | 410 kts | 305° |
| 2026-05-06 16:43 | 45.94422 | 20.79720 | 35909 ft | 410 kts | 305° |
| 2026-05-06 16:43 | 45.97935 | 20.73249 | 35910 ft | 410 kts | 305° |
| 2026-05-06 16:44 | 46.01442 | 20.66777 | 35905 ft | 410 kts | 305° |
| 2026-05-06 16:44 | 46.04947 | 20.60295 | 35910 ft | 411 kts | 304° |
| 2026-05-06 16:45 | 46.08461 | 20.53779 | 35906 ft | 412 kts | 304° |
| 2026-05-06 16:45 | 46.11981 | 20.47239 | 35910 ft | 412 kts | 304° |
| 2026-05-06 16:46 | 46.15498 | 20.40694 | 35907 ft | 413 kts | 304° |
| 2026-05-06 16:46 | 46.19097 | 20.34247 | 35907 ft | 412 kts | 306° |